createdAt,value
2023-05-22T00:00:26.880Z,6.40
2023-05-22T00:01:31.072Z,6.90
2023-05-22T00:02:35.173Z,6.80
2023-05-22T00:03:38.172Z,6.60
2023-05-22T00:04:43.939Z,7.10
2023-05-22T00:05:46.427Z,7.60
2023-05-22T00:06:49.356Z,7.10
2023-05-22T00:07:52.102Z,6.30
2023-05-22T00:08:59.148Z,6.70
2023-05-22T00:11:18.811Z,8.20
2023-05-22T00:12:21.579Z,7.70
2023-05-22T00:13:24.072Z,7.20
2023-05-22T00:14:28.421Z,7.90
2023-05-22T00:15:34.541Z,7.10
2023-05-22T00:16:37.702Z,6.90
2023-05-22T00:17:44.675Z,7.00
2023-05-22T00:18:51.815Z,7.20
2023-05-22T00:19:54.536Z,7.20
2023-05-22T00:20:57.471Z,7.00
2023-05-22T00:23:25.878Z,8.00
2023-05-22T00:24:28.230Z,6.80
2023-05-22T00:25:32.094Z,7.80
2023-05-22T00:27:53.966Z,7.40
2023-05-22T00:28:59.508Z,6.70
2023-05-22T00:30:07.164Z,7.40
2023-05-22T00:31:09.962Z,7.00
2023-05-22T00:32:12.562Z,7.10
2023-05-22T00:33:18.584Z,6.90
2023-05-22T00:34:42.761Z,6.10
2023-05-22T00:35:45.282Z,6.20
2023-05-22T00:36:49.180Z,7.50
2023-05-22T00:37:51.610Z,6.20
2023-05-22T00:38:55.797Z,6.30
2023-05-22T00:40:00.164Z,7.10
2023-05-22T00:41:13.854Z,6.70
2023-05-22T00:42:17.631Z,6.80
2023-05-22T00:43:20.579Z,7.20
2023-05-22T00:44:23.911Z,6.20
2023-05-22T00:45:30.947Z,6.80
2023-05-22T00:46:33.467Z,6.90
2023-05-22T00:47:36.156Z,6.90
2023-05-22T00:48:38.331Z,6.80
2023-05-22T00:49:41.317Z,7.40
2023-05-22T00:50:47.650Z,7.60
2023-05-22T00:51:58.639Z,7.20
2023-05-22T00:53:01.024Z,3.50
2023-05-22T00:54:04.664Z,7.30
2023-05-22T00:55:09.997Z,7.20
2023-05-22T00:56:18.719Z,7.60
2023-05-22T00:57:20.947Z,6.20
2023-05-22T00:58:25.471Z,8.00
2023-05-22T00:59:37.965Z,7.10
2023-05-22T01:00:40.684Z,7.60
2023-05-22T01:01:43.608Z,6.80
2023-05-22T01:04:05.397Z,7.70
2023-05-22T01:05:08.228Z,7.30
2023-05-22T01:06:14.637Z,6.20
2023-05-22T01:07:17.811Z,7.50
2023-05-22T01:08:21.671Z,7.00
2023-05-22T01:09:26.879Z,6.80
2023-05-22T01:10:31.236Z,6.20
2023-05-22T01:13:08.584Z,7.20
2023-05-22T01:14:16.983Z,6.10
2023-05-22T01:17:09.636Z,7.20
2023-05-22T01:18:34.409Z,7.10
2023-05-22T01:19:49.107Z,5.90
2023-05-22T01:21:18.889Z,7.60
2023-05-22T01:22:39.827Z,6.30
2023-05-22T01:24:02.327Z,7.90
2023-05-22T01:27:18.755Z,0.20
2023-05-22T01:30:22.348Z,8.30
2023-05-22T01:31:28.169Z,7.80
2023-05-22T01:32:33.425Z,7.90
2023-05-22T01:35:00.363Z,7.90
2023-05-22T01:36:04.158Z,6.60
2023-05-22T01:37:06.957Z,7.70
2023-05-22T01:38:10.797Z,7.80
2023-05-22T01:39:16.545Z,6.30
2023-05-22T01:40:20.743Z,7.40
2023-05-22T01:41:23.424Z,7.10
2023-05-22T01:42:27.290Z,6.27
2023-05-22T01:43:31.812Z,7.30
2023-05-22T01:44:38.918Z,6.60
2023-05-22T01:45:41.396Z,6.60
2023-05-22T01:46:48.063Z,6.80
2023-05-22T01:47:50.453Z,5.20
2023-05-22T01:48:53.303Z,6.82
2023-05-22T01:49:56.886Z,7.30
2023-05-22T01:51:04.683Z,6.80
2023-05-22T01:52:19.279Z,6.90
2023-05-22T01:53:28.131Z,6.40
2023-05-22T01:54:49.153Z,6.50
2023-05-22T01:55:55.092Z,7.00
2023-05-22T01:57:07.453Z,7.30
2023-05-22T01:58:14.002Z,7.10
2023-05-22T01:59:23.496Z,7.20
2023-05-22T02:01:37.909Z,8.50
2023-05-22T02:02:43.640Z,5.50
2023-05-22T02:03:48.056Z,3.70
2023-05-22T02:04:57.176Z,6.50
2023-05-22T02:06:02.915Z,7.30
2023-05-22T02:07:06.692Z,7.60
2023-05-22T02:08:10.816Z,6.90
2023-05-22T02:09:16.043Z,7.20
2023-05-22T02:10:20.397Z,7.10
2023-05-22T02:11:24.480Z,6.70
2023-05-22T02:12:28.269Z,6.90
2023-05-22T02:13:31.094Z,7.20
2023-05-22T02:14:35.014Z,7.80
2023-05-22T02:15:37.402Z,6.70
2023-05-22T02:16:39.877Z,7.70
2023-05-22T02:17:42.684Z,7.00
2023-05-22T02:18:45.050Z,7.55
2023-05-22T02:19:55.139Z,8.50
2023-05-22T02:20:58.517Z,8.40
2023-05-22T02:22:20.583Z,9.20
2023-05-22T02:23:23.644Z,8.70
2023-05-22T02:24:26.017Z,7.91
2023-05-22T02:25:29.363Z,7.64
2023-05-22T02:26:32.394Z,7.55
2023-05-22T02:27:35.334Z,8.90
2023-05-22T02:28:37.636Z,7.50
2023-05-22T02:29:41.836Z,7.60
2023-05-22T02:30:45.270Z,6.50
2023-05-22T02:33:04.079Z,8.00
2023-05-22T02:34:07.183Z,7.73
2023-05-22T02:35:09.565Z,8.00
2023-05-22T02:36:12.496Z,7.50
2023-05-22T02:37:14.707Z,7.30
2023-05-22T02:38:16.936Z,5.90
2023-05-22T02:39:20.341Z,7.10
2023-05-22T02:40:23.662Z,8.30
2023-05-22T02:41:26.023Z,7.20
2023-05-22T02:42:28.452Z,7.00
2023-05-22T02:43:30.830Z,7.20
2023-05-22T02:44:33.235Z,8.20
2023-05-22T02:45:35.557Z,8.20
2023-05-22T02:46:38.173Z,8.90
2023-05-22T02:47:40.666Z,6.70
2023-05-22T02:48:43.077Z,6.40
2023-05-22T02:49:45.545Z,6.60
2023-05-22T02:50:47.883Z,7.30
2023-05-22T02:51:50.895Z,7.20
2023-05-22T02:52:53.829Z,7.90
2023-05-22T02:53:56.788Z,7.55
2023-05-22T02:54:59.174Z,8.36
2023-05-22T02:56:02.012Z,7.80
2023-05-22T02:57:04.851Z,6.50
2023-05-22T02:59:23.073Z,6.80
2023-05-22T03:00:25.628Z,6.80
2023-05-22T03:01:29.864Z,7.70
2023-05-22T03:02:32.587Z,8.00
2023-05-22T03:03:35.787Z,7.00
2023-05-22T03:04:38.595Z,4.20
2023-05-22T03:05:41.053Z,7.60
2023-05-22T03:06:44.163Z,7.80
2023-05-22T03:07:48.655Z,7.40
2023-05-22T03:08:50.947Z,6.60
2023-05-22T03:09:53.289Z,7.00
2023-05-22T03:10:58.336Z,7.20
2023-05-22T03:12:00.819Z,7.90
2023-05-22T03:13:03.190Z,3.80
2023-05-22T03:14:05.600Z,7.80
2023-05-22T03:15:09.463Z,8.10
2023-05-22T03:16:13.978Z,8.30
2023-05-22T03:17:18.076Z,7.80
2023-05-22T03:18:20.514Z,7.80
2023-05-22T03:19:23.410Z,8.64
2023-05-22T03:20:25.801Z,8.40
2023-05-22T03:21:28.120Z,7.60
2023-05-22T03:22:30.866Z,8.10
2023-05-22T03:23:33.383Z,8.60
2023-05-22T03:24:35.909Z,4.70
2023-05-22T03:25:38.992Z,8.55
2023-05-22T03:26:43.251Z,7.30
2023-05-22T03:27:48.039Z,8.50
2023-05-22T03:28:50.262Z,8.09
2023-05-22T03:29:52.750Z,7.60
2023-05-22T03:30:56.062Z,9.40
2023-05-22T03:32:00.372Z,10.00
2023-05-22T03:33:02.786Z,8.70
2023-05-22T03:34:05.332Z,8.90
2023-05-22T03:35:09.496Z,7.90
2023-05-22T03:36:12.680Z,9.40
2023-05-22T03:37:15.756Z,7.45
2023-05-22T03:38:18.306Z,9.90
2023-05-22T03:39:20.710Z,8.20
2023-05-22T03:40:25.462Z,8.70
2023-05-22T03:41:27.909Z,8.20
2023-05-22T03:42:30.356Z,3.10
2023-05-22T03:43:34.022Z,7.80
2023-05-22T03:44:36.518Z,9.30
2023-05-22T03:45:39.070Z,7.20
2023-05-22T03:46:41.660Z,7.50
2023-05-22T03:47:45.429Z,8.90
2023-05-22T03:48:48.155Z,8.00
2023-05-22T03:49:51.175Z,8.30
2023-05-22T03:50:53.815Z,8.90
2023-05-22T03:51:56.915Z,8.80
2023-05-22T03:52:59.463Z,7.80
2023-05-22T03:54:01.928Z,7.60
2023-05-22T03:55:06.056Z,8.30
2023-05-22T03:57:18.180Z,8.30
2023-05-22T03:58:20.649Z,8.60
2023-05-22T03:59:23.198Z,8.10
2023-05-22T04:00:26.947Z,7.70
2023-05-22T04:01:29.665Z,7.70
2023-05-22T04:02:32.289Z,8.60
2023-05-22T04:03:36.366Z,8.40
2023-05-22T04:04:39.014Z,7.70
2023-05-22T04:05:42.491Z,8.00
2023-05-22T04:06:45.927Z,6.70
2023-05-22T04:07:48.832Z,7.60
2023-05-22T04:08:51.344Z,8.64
2023-05-22T04:09:53.713Z,6.80
2023-05-22T04:10:56.608Z,6.40
2023-05-22T04:11:59.038Z,7.20
2023-05-22T04:13:01.971Z,7.20
2023-05-22T04:14:04.422Z,7.45
2023-05-22T04:16:23.150Z,7.60
2023-05-22T04:18:43.196Z,7.50
2023-05-22T04:19:47.484Z,7.40
2023-05-22T04:20:50.187Z,6.40
2023-05-22T04:21:54.203Z,6.90
2023-05-22T04:24:14.241Z,7.00
2023-05-22T04:25:17.171Z,6.90
2023-05-22T04:27:35.743Z,6.90
2023-05-22T04:28:38.261Z,6.00
2023-05-22T04:29:41.654Z,6.70
2023-05-22T04:30:44.361Z,6.10
2023-05-22T04:31:47.772Z,6.70
2023-05-22T04:32:50.330Z,7.40
2023-05-22T04:33:52.801Z,6.70
2023-05-22T04:34:55.533Z,6.30
2023-05-22T04:35:58.018Z,5.80
2023-05-22T04:37:03.751Z,6.80
2023-05-22T04:38:06.637Z,6.60
2023-05-22T04:39:09.163Z,5.82
2023-05-22T04:40:13.960Z,6.80
2023-05-22T04:41:16.429Z,6.70
2023-05-22T04:42:19.993Z,7.10
2023-05-22T04:43:22.436Z,7.20
2023-05-22T04:44:24.809Z,6.70
2023-05-22T04:45:27.712Z,6.90
2023-05-22T04:46:32.375Z,6.40
2023-05-22T04:47:34.809Z,7.45
2023-05-22T04:48:39.209Z,7.70
2023-05-22T04:49:41.636Z,7.80
2023-05-22T04:50:44.129Z,8.00
2023-05-22T04:51:49.357Z,8.50
2023-05-22T04:52:51.941Z,7.50
2023-05-22T04:53:57.173Z,6.60
2023-05-22T04:55:01.113Z,8.40
2023-05-22T04:57:22.935Z,7.30
2023-05-22T04:58:26.900Z,7.10
2023-05-22T04:59:29.719Z,7.40
2023-05-22T05:00:39.267Z,7.91
2023-05-22T05:01:42.658Z,6.80
2023-05-22T05:02:48.272Z,6.70
2023-05-22T05:03:50.822Z,7.30
2023-05-22T05:04:53.267Z,5.60
2023-05-22T05:07:05.113Z,7.00
2023-05-22T05:08:11.441Z,7.50
2023-05-22T05:09:14.617Z,8.20
2023-05-22T05:10:17.264Z,7.50
2023-05-22T05:11:19.717Z,7.90
2023-05-22T05:12:22.712Z,7.60
2023-05-22T05:13:26.349Z,6.90
2023-05-22T05:14:29.208Z,6.90
2023-05-22T05:15:33.585Z,7.30
2023-05-22T05:16:38.110Z,8.00
2023-05-22T05:17:42.582Z,7.50
2023-05-22T05:18:45.127Z,7.40
2023-05-22T05:19:47.500Z,7.40
2023-05-22T05:20:49.986Z,6.30
2023-05-22T05:21:53.413Z,6.20
2023-05-22T05:22:59.717Z,6.80
2023-05-22T05:24:02.467Z,7.40
2023-05-22T05:25:05.646Z,7.40
2023-05-22T05:27:25.377Z,7.20
2023-05-22T05:28:29.208Z,7.00
2023-05-22T05:29:31.846Z,7.45
2023-05-22T05:30:40.235Z,7.10
2023-05-22T05:31:53.999Z,6.60
2023-05-22T05:32:58.449Z,5.50
2023-05-22T05:34:08.993Z,6.30
2023-05-22T05:35:25.136Z,5.90
2023-05-22T05:36:29.578Z,6.40
2023-05-22T05:37:32.119Z,6.80
2023-05-22T05:38:36.326Z,7.40
2023-05-22T05:39:40.650Z,7.20
2023-05-22T05:41:54.265Z,7.00
2023-05-22T05:42:57.294Z,6.80
2023-05-22T05:44:01.645Z,5.80
2023-05-22T05:45:06.673Z,5.90
2023-05-22T05:46:10.617Z,6.50
2023-05-22T05:47:13.313Z,5.70
2023-05-22T05:48:16.784Z,6.40
2023-05-22T05:49:22.159Z,5.70
2023-05-22T05:50:25.167Z,6.80
2023-05-22T05:51:29.853Z,6.50
2023-05-22T05:52:33.433Z,5.70
2023-05-22T05:53:37.764Z,6.20
2023-05-22T05:54:40.839Z,5.70
2023-05-22T05:55:48.426Z,4.50
2023-05-22T05:56:51.387Z,6.10
2023-05-22T05:57:55.077Z,6.20
2023-05-22T05:58:59.495Z,5.70
2023-05-22T06:00:11.268Z,2.10
2023-05-22T06:01:16.617Z,5.80
2023-05-22T06:02:19.656Z,5.60
2023-05-22T06:03:22.488Z,5.30
2023-05-22T06:04:30.906Z,4.80
2023-05-22T06:05:33.593Z,4.60
2023-05-22T06:07:53.130Z,5.60
2023-05-22T06:08:55.802Z,5.90
2023-05-22T06:10:00.077Z,5.40
2023-05-22T06:11:04.479Z,5.20
2023-05-22T06:12:08.900Z,5.50
2023-05-22T06:13:11.247Z,6.70
2023-05-22T06:14:13.954Z,5.40
2023-05-22T06:15:16.598Z,5.80
2023-05-22T06:16:19.117Z,4.80
2023-05-22T06:17:22.802Z,0.00
2023-05-22T06:18:25.396Z,5.60
2023-05-22T06:19:28.182Z,5.45
2023-05-22T06:20:34.041Z,4.80
2023-05-22T06:21:37.067Z,5.30
2023-05-22T06:22:40.222Z,5.10
2023-05-22T06:23:43.501Z,4.40
2023-05-22T06:24:46.736Z,6.10
2023-05-22T06:25:51.022Z,4.40
2023-05-22T06:26:55.501Z,4.20
2023-05-22T06:27:57.957Z,4.50
2023-05-22T06:29:00.420Z,4.60
2023-05-22T06:30:04.881Z,5.40
2023-05-22T06:31:09.651Z,4.90
2023-05-22T06:32:14.691Z,4.60
2023-05-22T06:33:18.135Z,4.80
2023-05-22T06:34:21.357Z,4.60
2023-05-22T06:35:24.256Z,4.45
2023-05-22T06:36:27.194Z,4.00
2023-05-22T06:37:31.242Z,4.00
2023-05-22T06:38:34.872Z,4.90
2023-05-22T06:39:38.700Z,3.90
2023-05-22T06:40:45.578Z,4.20
2023-05-22T06:41:56.364Z,3.90
2023-05-22T06:43:01.569Z,5.20
2023-05-22T06:45:20.790Z,5.70
2023-05-22T06:46:27.955Z,5.20
2023-05-22T06:47:33.075Z,3.90
2023-05-22T06:48:35.701Z,4.40
2023-05-22T06:49:40.428Z,4.30
2023-05-22T06:50:43.363Z,4.20
2023-05-22T06:51:46.037Z,4.73
2023-05-22T06:52:51.257Z,4.00
2023-05-22T06:53:53.800Z,3.90
2023-05-22T06:55:02.197Z,4.70
2023-05-22T06:56:05.626Z,4.20
2023-05-22T06:57:10.544Z,4.70
2023-05-22T06:58:13.835Z,4.30
2023-05-22T06:59:18.623Z,4.10
2023-05-22T07:00:39.524Z,4.40
2023-05-22T07:01:44.211Z,3.80
2023-05-22T07:02:48.404Z,4.20
2023-05-22T07:03:59.612Z,4.60
2023-05-22T07:05:08.366Z,4.00
2023-05-22T07:06:20.086Z,0.00
2023-05-22T07:07:23.709Z,4.20
2023-05-22T07:08:30.410Z,4.20
2023-05-22T07:09:32.629Z,3.40
2023-05-22T07:10:35.705Z,3.70
2023-05-22T07:11:38.299Z,4.00
2023-05-22T07:12:41.305Z,3.80
2023-05-22T07:13:43.830Z,4.40
2023-05-22T07:14:46.319Z,3.40
2023-05-22T07:15:49.070Z,3.36
2023-05-22T07:16:53.964Z,4.50
2023-05-22T07:17:58.413Z,4.00
2023-05-22T07:19:01.278Z,2.91
2023-05-22T07:20:04.664Z,3.45
2023-05-22T07:21:08.291Z,3.10
2023-05-22T07:22:11.321Z,3.60
2023-05-22T07:24:26.368Z,4.30
2023-05-22T07:27:57.651Z,4.20
2023-05-22T07:29:01.525Z,3.90
2023-05-22T07:30:06.796Z,3.20
2023-05-22T07:31:10.523Z,3.90
2023-05-22T07:32:13.009Z,3.70
2023-05-22T07:33:17.363Z,3.10
2023-05-22T07:34:20.978Z,3.80
2023-05-22T07:35:24.924Z,4.70
2023-05-22T07:36:28.481Z,4.30
2023-05-22T07:37:31.002Z,4.50
2023-05-22T07:38:35.091Z,4.00
2023-05-22T07:39:38.189Z,4.20
2023-05-22T07:40:41.096Z,3.64
2023-05-22T07:41:47.582Z,3.45
2023-05-22T07:42:50.167Z,4.40
2023-05-22T07:43:52.629Z,4.00
2023-05-22T07:44:57.220Z,3.70
2023-05-22T07:46:03.097Z,4.00
2023-05-22T07:47:07.678Z,3.40
2023-05-22T07:48:14.134Z,4.40
2023-05-22T07:49:17.287Z,3.73
2023-05-22T07:50:19.995Z,3.60
2023-05-22T07:51:22.443Z,3.60
2023-05-22T07:52:29.302Z,3.80
2023-05-22T07:53:31.882Z,3.20
2023-05-22T07:54:35.469Z,3.00
2023-05-22T07:55:38.051Z,2.70
2023-05-22T07:56:41.554Z,3.55
2023-05-22T07:57:46.060Z,3.20
2023-05-22T07:58:50.419Z,3.20
2023-05-22T07:59:55.005Z,2.40
2023-05-22T08:00:57.566Z,3.73
2023-05-22T08:02:01.433Z,4.20
2023-05-22T08:03:04.179Z,3.50
2023-05-22T08:04:08.892Z,3.60
2023-05-22T08:05:14.835Z,3.60
2023-05-22T08:06:21.534Z,2.60
2023-05-22T08:07:24.129Z,2.90
2023-05-22T08:08:28.839Z,3.20
2023-05-22T08:09:37.839Z,3.00
2023-05-22T08:10:47.061Z,2.80
2023-05-22T08:11:41.102Z,2.90
2023-05-22T08:12:44.021Z,2.80
2023-05-22T08:13:46.828Z,2.27
2023-05-22T08:14:49.484Z,2.64
2023-05-22T08:15:51.972Z,3.20
2023-05-22T08:16:56.465Z,3.40
2023-05-22T08:17:59.076Z,2.60
2023-05-22T08:19:08.519Z,3.00
2023-05-22T08:20:12.381Z,2.80
2023-05-22T08:21:16.072Z,2.20
2023-05-22T08:22:18.662Z,2.50
2023-05-22T08:23:24.002Z,2.40
2023-05-22T08:25:44.476Z,3.30
2023-05-22T08:26:47.089Z,2.20
2023-05-22T08:27:49.581Z,3.40
2023-05-22T08:28:52.514Z,3.00
2023-05-22T08:29:58.092Z,2.82
2023-05-22T08:31:01.366Z,3.70
2023-05-22T08:32:04.453Z,3.20
2023-05-22T08:33:08.957Z,2.70
2023-05-22T08:34:12.308Z,2.90
2023-05-22T08:35:14.893Z,2.60
2023-05-22T08:36:17.881Z,3.27
2023-05-22T08:37:20.872Z,2.70
2023-05-22T08:38:23.309Z,3.09
2023-05-22T08:39:26.266Z,3.00
2023-05-22T08:40:36.979Z,3.09
2023-05-22T08:41:39.779Z,3.10
2023-05-22T08:44:05.867Z,3.30
2023-05-22T08:45:12.413Z,3.00
2023-05-22T08:46:16.842Z,2.70
2023-05-22T08:49:57.201Z,2.90
2023-05-22T08:51:05.109Z,2.50
2023-05-22T08:52:14.318Z,2.60
2023-05-22T08:53:18.516Z,2.50
2023-05-22T08:54:22.742Z,2.50
2023-05-22T08:55:25.868Z,0.80
2023-05-22T08:56:30.256Z,2.70
2023-05-22T08:57:32.794Z,3.40
2023-05-22T08:58:37.565Z,2.60
2023-05-22T08:59:40.610Z,2.70
2023-05-22T09:00:45.545Z,2.10
2023-05-22T09:01:48.082Z,3.10
2023-05-22T09:02:53.167Z,2.36
2023-05-22T09:04:01.910Z,3.00
2023-05-22T09:06:32.366Z,2.10
2023-05-22T09:07:38.003Z,2.60
2023-05-22T09:08:42.943Z,2.40
2023-05-22T09:09:46.746Z,3.50
2023-05-22T09:10:57.757Z,2.40
2023-05-22T09:12:00.479Z,3.20
2023-05-22T09:13:08.665Z,3.40
2023-05-22T09:14:14.261Z,2.60
2023-05-22T09:15:16.740Z,1.60
2023-05-22T09:16:21.243Z,3.30
2023-05-22T09:17:26.224Z,3.20
2023-05-22T09:18:28.861Z,3.20
2023-05-22T09:19:31.793Z,2.30
2023-05-22T09:20:35.696Z,1.55
2023-05-22T09:23:16.207Z,3.10
2023-05-22T09:24:18.935Z,2.80
2023-05-22T09:25:21.481Z,2.50
2023-05-22T09:26:28.775Z,3.10
2023-05-22T09:27:36.745Z,3.00
2023-05-22T09:28:39.347Z,1.60
2023-05-22T09:29:52.516Z,2.80
2023-05-22T09:30:55.750Z,2.40
2023-05-22T09:31:59.596Z,2.40
2023-05-22T09:33:03.915Z,2.70
2023-05-22T09:35:39.572Z,3.00
2023-05-22T09:36:42.232Z,3.00
2023-05-22T09:37:47.101Z,2.60
2023-05-22T09:40:13.687Z,2.10
2023-05-22T09:43:37.106Z,2.20
2023-05-22T09:44:39.787Z,3.10
2023-05-22T09:45:42.332Z,2.50
2023-05-22T09:46:45.970Z,3.40
2023-05-22T09:47:50.824Z,2.90
2023-05-22T09:48:54.309Z,1.50
2023-05-22T09:49:57.850Z,2.60
2023-05-22T09:51:02.001Z,3.60
2023-05-22T09:52:09.079Z,2.80
2023-05-22T09:53:11.629Z,2.80
2023-05-22T09:54:16.511Z,3.10
2023-05-22T09:55:20.409Z,3.00
2023-05-22T09:56:37.902Z,2.60
2023-05-22T09:57:35.688Z,2.90
2023-05-22T09:58:42.416Z,4.00
2023-05-22T09:59:52.180Z,2.90
2023-05-22T10:01:02.930Z,2.20
2023-05-22T10:02:11.869Z,2.50
2023-05-22T10:03:20.673Z,3.10
2023-05-22T10:05:44.301Z,5.30
2023-05-22T10:09:29.089Z,2.80
2023-05-22T10:10:39.504Z,3.40
2023-05-22T10:11:45.371Z,3.50
2023-05-22T10:12:58.594Z,3.10
2023-05-22T10:17:06.331Z,3.40
2023-05-22T10:18:13.959Z,2.90
2023-05-22T10:19:19.079Z,3.30
2023-05-22T10:20:27.618Z,2.10
2023-05-22T10:21:34.964Z,3.80
2023-05-22T10:22:49.066Z,3.70
2023-05-22T10:24:01.901Z,2.90
2023-05-22T10:25:29.975Z,3.20
2023-05-22T10:26:32.699Z,3.30
2023-05-22T10:27:36.954Z,3.30
2023-05-22T10:29:02.892Z,2.60
2023-05-22T10:31:56.762Z,4.20
2023-05-22T10:33:10.434Z,3.40
2023-05-22T10:34:34.196Z,2.60
2023-05-22T10:36:05.087Z,2.60
2023-05-22T10:37:34.202Z,2.60
2023-05-22T10:38:59.285Z,2.70
2023-05-22T10:40:14.599Z,3.80
2023-05-22T10:41:17.639Z,2.00
2023-05-22T10:42:22.361Z,2.10
2023-05-22T10:43:28.574Z,2.70
2023-05-22T10:44:41.445Z,3.30
2023-05-22T10:45:54.076Z,3.00
2023-05-22T10:48:22.341Z,3.20
2023-05-22T10:49:27.220Z,3.10
2023-05-22T10:51:47.648Z,2.80
2023-05-22T10:52:58.140Z,3.00
2023-05-22T10:54:06.364Z,2.50
2023-05-22T10:55:12.177Z,1.80
2023-05-22T10:56:22.911Z,1.70
2023-05-22T10:57:31.726Z,2.90
2023-05-22T11:00:12.371Z,4.00
2023-05-22T11:01:19.443Z,2.80
2023-05-22T11:02:26.861Z,3.60
2023-05-22T11:03:33.976Z,3.10
2023-05-22T11:04:40.679Z,3.70
2023-05-22T11:07:11.373Z,2.80
2023-05-22T11:08:29.875Z,3.10
2023-05-22T11:09:44.911Z,2.40
2023-05-22T11:12:28.758Z,3.20
2023-05-22T11:13:34.232Z,2.60
2023-05-22T11:14:39.283Z,0.40
2023-05-22T11:15:48.152Z,2.70
2023-05-22T11:16:55.717Z,3.00
2023-05-22T11:18:01.845Z,1.80
2023-05-22T11:19:21.839Z,2.30
2023-05-22T11:20:26.383Z,2.50
2023-05-22T11:24:16.362Z,3.70
2023-05-22T11:25:21.084Z,3.00
2023-05-22T11:26:27.048Z,2.30
2023-05-22T11:27:35.129Z,3.10
2023-05-22T11:30:02.260Z,2.70
2023-05-22T11:31:08.145Z,3.40
2023-05-22T11:32:12.120Z,2.40
2023-05-22T11:33:15.449Z,3.20
2023-05-22T11:34:21.299Z,2.70
2023-05-22T11:35:29.952Z,2.60
2023-05-22T11:36:39.449Z,2.90
2023-05-22T11:38:59.931Z,3.80
2023-05-22T11:41:16.208Z,3.20
2023-05-22T11:42:19.366Z,2.20
2023-05-22T11:43:31.687Z,2.60
2023-05-22T11:44:34.788Z,2.70
2023-05-22T11:45:38.991Z,2.00
2023-05-22T11:46:42.408Z,3.30
2023-05-22T11:49:02.468Z,2.82
2023-05-22T11:50:09.371Z,2.20
2023-05-22T11:51:12.506Z,2.10
2023-05-22T11:53:26.663Z,3.60
2023-05-22T11:54:32.283Z,2.30
2023-05-22T11:55:34.838Z,1.80
2023-05-22T11:56:38.089Z,2.20
2023-05-22T11:57:41.367Z,2.40
2023-05-22T11:58:43.671Z,2.30
2023-05-22T11:59:48.888Z,2.40
2023-05-22T12:00:51.612Z,2.20
2023-05-22T12:01:56.507Z,2.10
2023-05-22T12:02:58.976Z,2.60
2023-05-22T12:04:02.424Z,2.80
2023-05-22T12:05:06.019Z,2.20
2023-05-22T12:06:11.255Z,2.60
2023-05-22T12:07:15.434Z,3.10
2023-05-22T12:08:19.408Z,2.10
2023-05-22T12:09:22.000Z,2.20
2023-05-22T12:10:26.047Z,2.00
2023-05-22T12:11:33.236Z,2.40
2023-05-22T12:12:38.052Z,2.60
2023-05-22T12:13:41.797Z,2.40
2023-05-22T12:14:45.218Z,2.30
2023-05-22T12:15:47.694Z,1.20
2023-05-22T12:16:51.891Z,2.10
2023-05-22T12:17:54.842Z,0.80
2023-05-22T12:18:57.430Z,3.00
2023-05-22T12:20:00.327Z,1.90
2023-05-22T12:21:07.551Z,1.91
2023-05-22T12:22:11.856Z,2.20
2023-05-22T12:23:28.174Z,2.30
2023-05-22T12:24:41.458Z,2.20
2023-05-22T12:25:43.924Z,1.70
2023-05-22T12:26:50.707Z,2.70
2023-05-22T12:27:53.742Z,1.90
2023-05-22T12:30:10.937Z,2.80
2023-05-22T12:31:22.998Z,1.70
2023-05-22T12:32:29.385Z,1.70
2023-05-22T12:33:31.948Z,1.70
2023-05-22T12:34:35.733Z,2.00
2023-05-22T12:35:40.234Z,2.10
2023-05-22T12:36:45.292Z,1.90
2023-05-22T12:37:51.016Z,2.50
2023-05-22T12:38:57.385Z,1.70
2023-05-22T12:40:03.961Z,1.90
2023-05-22T12:41:10.767Z,1.70
2023-05-22T12:42:14.234Z,2.00
2023-05-22T12:43:20.403Z,3.00
2023-05-22T12:44:23.395Z,2.50
2023-05-22T12:45:26.822Z,2.45
2023-05-22T12:46:33.034Z,1.70
2023-05-22T12:47:35.372Z,1.80
2023-05-22T12:48:37.981Z,2.00
2023-05-22T12:49:40.807Z,3.00
2023-05-22T12:50:44.862Z,3.27
2023-05-22T12:51:48.417Z,2.50
2023-05-22T12:58:27.576Z,1.30
2023-05-22T13:00:46.747Z,2.40
2023-05-22T13:01:49.163Z,2.00
2023-05-22T13:02:53.055Z,2.20
2023-05-22T13:03:55.420Z,2.00
2023-05-22T13:04:57.586Z,2.50
2023-05-22T13:05:59.949Z,3.10
2023-05-22T13:07:02.535Z,2.90
2023-05-22T13:08:04.756Z,2.80
2023-05-22T13:09:06.996Z,1.90
2023-05-22T13:10:11.568Z,3.70
2023-05-22T13:11:14.115Z,2.40
2023-05-22T13:12:18.339Z,3.10
2023-05-22T13:13:20.560Z,2.70
2023-05-22T13:14:24.006Z,2.60
2023-05-22T13:15:26.392Z,3.20
2023-05-22T13:16:30.536Z,2.70
2023-05-22T13:17:32.987Z,2.70
2023-05-22T13:18:35.344Z,2.60
2023-05-22T13:19:39.465Z,2.50
2023-05-22T13:20:43.509Z,2.10
2023-05-22T13:21:47.074Z,2.30
2023-05-22T13:22:49.278Z,2.70
2023-05-22T13:23:52.327Z,2.50
2023-05-22T13:24:55.309Z,2.00
2023-05-22T13:25:58.722Z,3.00
2023-05-22T13:27:01.054Z,3.30
2023-05-22T13:28:03.311Z,2.30
2023-05-22T13:29:05.401Z,1.70
2023-05-22T13:30:12.425Z,3.10
2023-05-22T13:31:15.777Z,3.30
2023-05-22T13:32:18.910Z,2.70
2023-05-22T13:33:21.561Z,2.50
2023-05-22T13:34:23.959Z,2.70
2023-05-22T13:35:26.686Z,3.80
2023-05-22T13:36:29.079Z,2.00
2023-05-22T13:37:31.365Z,2.60
2023-05-22T13:38:33.647Z,2.00
2023-05-22T13:39:36.079Z,3.10
2023-05-22T13:40:39.054Z,2.50
2023-05-22T13:41:41.756Z,2.64
2023-05-22T13:42:45.540Z,1.10
2023-05-22T13:43:48.057Z,1.82
2023-05-22T13:44:50.875Z,2.20
2023-05-22T13:45:53.843Z,2.40
2023-05-22T13:46:56.452Z,3.00
2023-05-22T13:48:00.070Z,3.40
2023-05-22T13:49:02.415Z,3.40
2023-05-22T13:50:05.732Z,3.20
2023-05-22T13:51:08.625Z,3.45
2023-05-22T13:52:10.957Z,2.18
2023-05-22T13:53:13.262Z,3.20
2023-05-22T13:54:15.983Z,2.70
2023-05-22T13:55:18.266Z,3.20
2023-05-22T13:56:22.884Z,3.20
2023-05-22T13:57:26.364Z,3.40
2023-05-22T13:58:28.728Z,2.70
2023-05-22T13:59:30.834Z,2.80
2023-05-22T14:00:33.270Z,3.20
2023-05-22T14:01:35.613Z,3.20
2023-05-22T14:02:39.064Z,2.90
2023-05-22T14:03:41.672Z,2.80
2023-05-22T14:04:44.841Z,3.10
2023-05-22T14:05:48.260Z,3.70
2023-05-22T14:06:50.682Z,2.20
2023-05-22T14:07:52.930Z,4.00
2023-05-22T14:08:55.470Z,3.50
2023-05-22T14:10:00.461Z,3.50
2023-05-22T14:11:02.677Z,3.40
2023-05-22T14:12:06.389Z,3.45
2023-05-22T14:13:08.658Z,2.90
2023-05-22T14:14:10.867Z,3.30
2023-05-22T14:15:13.201Z,2.60
2023-05-22T14:16:16.510Z,3.40
2023-05-22T14:17:18.878Z,2.80
2023-05-22T14:18:22.330Z,3.10
2023-05-22T14:19:24.608Z,2.80
2023-05-22T14:20:27.487Z,3.36
2023-05-22T14:21:30.220Z,2.30
2023-05-22T14:22:36.323Z,3.30
2023-05-22T14:23:37.362Z,3.30
2023-05-22T14:24:39.694Z,2.30
2023-05-22T14:25:45.708Z,2.50
2023-05-22T14:26:48.557Z,3.30
2023-05-22T14:27:51.030Z,3.27
2023-05-22T14:28:53.557Z,2.00
2023-05-22T14:29:55.726Z,3.30
2023-05-22T14:30:58.131Z,3.50
2023-05-22T14:33:19.512Z,3.00
2023-05-22T14:34:22.279Z,3.30
2023-05-22T14:35:25.687Z,3.00
2023-05-22T14:36:27.994Z,2.60
2023-05-22T14:37:30.109Z,3.00
2023-05-22T14:38:32.292Z,2.50
2023-05-22T14:39:34.573Z,1.80
2023-05-22T14:40:36.957Z,2.10
2023-05-22T14:41:39.172Z,2.70
2023-05-22T14:42:44.624Z,2.50
2023-05-22T14:43:49.414Z,2.40
2023-05-22T14:44:51.750Z,1.70
2023-05-22T14:45:58.346Z,2.50
2023-05-22T14:47:01.261Z,2.40
2023-05-22T14:48:04.187Z,2.50
2023-05-22T14:49:06.598Z,1.64
2023-05-22T14:50:18.943Z,1.70
2023-05-22T14:51:14.992Z,1.90
2023-05-22T14:52:36.854Z,1.80
2023-05-22T14:53:54.558Z,1.70
2023-05-22T14:54:58.188Z,2.00
2023-05-22T14:56:00.449Z,2.64
2023-05-22T14:57:02.698Z,2.20
2023-05-22T14:58:04.926Z,2.20
2023-05-22T14:59:07.256Z,2.20
2023-05-22T15:00:11.982Z,2.27
2023-05-22T15:01:14.426Z,2.60
2023-05-22T15:02:16.700Z,3.40
2023-05-22T15:04:31.485Z,2.80
2023-05-22T15:05:33.865Z,4.20
2023-05-22T15:06:36.242Z,4.30
2023-05-22T15:08:42.562Z,3.30
2023-05-22T15:09:44.890Z,3.10
2023-05-22T15:10:47.256Z,2.80
2023-05-22T15:11:49.578Z,3.80
2023-05-22T15:17:36.128Z,2.70
2023-05-22T15:18:38.938Z,2.70
2023-05-22T15:19:41.359Z,2.90
2023-05-22T15:20:45.447Z,2.70
2023-05-22T15:21:47.626Z,3.10
2023-05-22T15:22:49.804Z,1.90
2023-05-22T15:23:51.988Z,3.56
2023-05-22T15:26:16.927Z,2.60
2023-05-22T15:27:19.137Z,2.80
2023-05-22T15:28:21.808Z,2.50
2023-05-22T15:29:23.870Z,1.90
2023-05-22T15:30:26.216Z,3.10
2023-05-22T15:31:29.587Z,3.40
2023-05-22T15:32:32.481Z,2.50
2023-05-22T15:33:36.081Z,2.30
2023-05-22T15:34:40.144Z,2.90
2023-05-22T15:35:43.094Z,3.40
2023-05-22T15:36:45.400Z,2.70
2023-05-22T15:37:48.360Z,2.50
2023-05-22T15:38:50.580Z,3.70
2023-05-22T15:39:53.045Z,3.90
2023-05-22T15:40:55.247Z,2.90
2023-05-22T15:42:05.841Z,2.60
2023-05-22T15:43:03.016Z,2.80
2023-05-22T15:44:09.391Z,3.10
2023-05-22T15:45:12.093Z,2.40
2023-05-22T15:46:14.718Z,2.20
2023-05-22T15:47:17.248Z,3.50
2023-05-22T15:48:21.454Z,2.60
2023-05-22T15:49:23.746Z,2.70
2023-05-22T15:50:26.348Z,3.00
2023-05-22T15:51:29.237Z,2.60